sensor_id;sensor_type;location;lat;lon;timestamp;P1;durP1;ratioP1;P2;durP2;ratioP2
60054;SDS011;45930;53.514;55.904;2022-12-18T00:00:59;14.82;;;9.45;;
60054;SDS011;45930;53.514;55.904;2022-12-18T00:02:03;16.05;;;10.13;;
60054;SDS011;45930;53.514;55.904;2022-12-18T00:03:04;15.93;;;10.13;;
60054;SDS011;45930;53.514;55.904;2022-12-18T00:04:05;14.15;;;9.63;;
60054;SDS011;45930;53.514;55.904;2022-12-18T00:05:08;16.17;;;9.73;;
60054;SDS011;45930;53.514;55.904;2022-12-18T00:06:09;14.93;;;8.75;;
60054;SDS011;45930;53.514;55.904;2022-12-18T00:07:09;16.17;;;8.40;;
60054;SDS011;45930;53.514;55.904;2022-12-18T00:08:10;12.25;;;8.27;;
60054;SDS011;45930;53.514;55.904;2022-12-18T00:09:11;14.70;;;8.85;;
60054;SDS011;45930;53.514;55.904;2022-12-18T00:10:12;14.23;;;9.73;;
60054;SDS011;45930;53.514;55.904;2022-12-18T00:11:14;14.27;;;8.65;;
60054;SDS011;45930;53.514;55.904;2022-12-18T00:12:17;15.88;;;9.07;;
60054;SDS011;45930;53.514;55.904;2022-12-18T00:13:17;9.98;;;7.18;;
60054;SDS011;45930;53.514;55.904;2022-12-18T00:14:18;15.70;;;8.07;;
60054;SDS011;45930;53.514;55.904;2022-12-18T00:15:19;12.88;;;7.28;;
60054;SDS011;45930;53.514;55.904;2022-12-18T00:16:20;16.67;;;7.80;;
60054;SDS011;45930;53.514;55.904;2022-12-18T00:17:22;16.75;;;7.60;;
60054;SDS011;45930;53.514;55.904;2022-12-18T00:18:23;12.88;;;7.20;;
60054;SDS011;45930;53.514;55.904;2022-12-18T00:19:24;16.00;;;8.35;;
60054;SDS011;45930;53.514;55.904;2022-12-18T00:20:25;14.77;;;7.85;;
60054;SDS011;45930;53.514;55.904;2022-12-18T00:21:26;17.95;;;8.25;;
60054;SDS011;45930;53.514;55.904;2022-12-18T00:22:30;15.77;;;8.02;;
60054;SDS011;45930;53.514;55.904;2022-12-18T00:23:31;17.65;;;7.80;;
60054;SDS011;45930;53.514;55.904;2022-12-18T00:24:33;15.50;;;8.25;;
60054;SDS011;45930;53.514;55.904;2022-12-18T00:25:34;17.80;;;8.75;;
60054;SDS011;45930;53.514;55.904;2022-12-18T00:26:36;17.58;;;9.10;;
60054;SDS011;45930;53.514;55.904;2022-12-18T00:27:38;12.00;;;7.57;;
60054;SDS011;45930;53.514;55.904;2022-12-18T00:28:39;13.52;;;8.20;;
60054;SDS011;45930;53.514;55.904;2022-12-18T00:29:40;18.13;;;10.43;;
60054;SDS011;45930;53.514;55.904;2022-12-18T00:30:40;13.30;;;8.55;;
60054;SDS011;45930;53.514;55.904;2022-12-18T00:31:41;13.82;;;8.38;;
60054;SDS011;45930;53.514;55.904;2022-12-18T00:32:43;12.10;;;8.98;;
60054;SDS011;45930;53.514;55.904;2022-12-18T00:33:43;12.35;;;7.85;;
60054;SDS011;45930;53.514;55.904;2022-12-18T00:34:44;13.05;;;7.57;;
60054;SDS011;45930;53.514;55.904;2022-12-18T00:35:45;13.55;;;7.90;;
60054;SDS011;45930;53.514;55.904;2022-12-18T00:36:46;12.65;;;7.18;;
60054;SDS011;45930;53.514;55.904;2022-12-18T00:37:48;12.88;;;8.32;;
60054;SDS011;45930;53.514;55.904;2022-12-18T00:38:49;12.07;;;8.10;;
60054;SDS011;45930;53.514;55.904;2022-12-18T00:39:49;15.18;;;7.65;;
60054;SDS011;45930;53.514;55.904;2022-12-18T00:40:50;16.00;;;7.25;;
60054;SDS011;45930;53.514;55.904;2022-12-18T00:41:51;11.52;;;7.15;;
60054;SDS011;45930;53.514;55.904;2022-12-18T00:44:14;13.80;;;7.88;;
60054;SDS011;45930;53.514;55.904;2022-12-18T00:45:16;13.85;;;8.70;;
60054;SDS011;45930;53.514;55.904;2022-12-18T00:46:16;13.75;;;7.22;;
60054;SDS011;45930;53.514;55.904;2022-12-18T00:47:17;16.10;;;7.90;;
60054;SDS011;45930;53.514;55.904;2022-12-18T00:48:18;13.27;;;7.55;;
60054;SDS011;45930;53.514;55.904;2022-12-18T00:49:19;13.93;;;7.22;;
60054;SDS011;45930;53.514;55.904;2022-12-18T00:50:21;11.90;;;7.55;;
60054;SDS011;45930;53.514;55.904;2022-12-18T00:51:22;14.45;;;6.60;;
60054;SDS011;45930;53.514;55.904;2022-12-18T00:52:24;9.82;;;7.57;;
60054;SDS011;45930;53.514;55.904;2022-12-18T00:53:24;12.57;;;6.45;;
60054;SDS011;45930;53.514;55.904;2022-12-18T00:54:25;15.02;;;7.13;;
60054;SDS011;45930;53.514;55.904;2022-12-18T00:55:26;11.27;;;6.97;;
60054;SDS011;45930;53.514;55.904;2022-12-18T00:56:27;11.98;;;6.47;;
60054;SDS011;45930;53.514;55.904;2022-12-18T00:57:27;11.25;;;6.28;;
60054;SDS011;45930;53.514;55.904;2022-12-18T00:58:28;9.98;;;6.53;;
60054;SDS011;45930;53.514;55.904;2022-12-18T00:59:29;10.05;;;6.18;;
60054;SDS011;45930;53.514;55.904;2022-12-18T01:00:30;9.85;;;6.18;;
60054;SDS011;45930;53.514;55.904;2022-12-18T01:01:31;12.13;;;6.53;;
60054;SDS011;45930;53.514;55.904;2022-12-18T01:02:32;10.85;;;6.63;;
60054;SDS011;45930;53.514;55.904;2022-12-18T01:03:33;8.02;;;5.32;;
60054;SDS011;45930;53.514;55.904;2022-12-18T01:04:34;11.38;;;5.18;;
60054;SDS011;45930;53.514;55.904;2022-12-18T01:05:38;12.85;;;6.53;;
60054;SDS011;45930;53.514;55.904;2022-12-18T01:06:40;10.38;;;6.30;;
60054;SDS011;45930;53.514;55.904;2022-12-18T01:07:41;12.82;;;6.75;;
60054;SDS011;45930;53.514;55.904;2022-12-18T01:08:42;12.15;;;6.60;;
60054;SDS011;45930;53.514;55.904;2022-12-18T01:09:43;10.05;;;6.32;;
60054;SDS011;45930;53.514;55.904;2022-12-18T01:10:43;13.13;;;6.10;;
60054;SDS011;45930;53.514;55.904;2022-12-18T01:11:44;9.05;;;5.93;;
60054;SDS011;45930;53.514;55.904;2022-12-18T01:12:45;11.88;;;6.30;;
60054;SDS011;45930;53.514;55.904;2022-12-18T01:13:46;9.48;;;6.20;;
60054;SDS011;45930;53.514;55.904;2022-12-18T01:14:47;11.73;;;6.60;;
60054;SDS011;45930;53.514;55.904;2022-12-18T01:15:48;10.50;;;6.65;;
60054;SDS011;45930;53.514;55.904;2022-12-18T01:16:50;17.88;;;6.43;;
60054;SDS011;45930;53.514;55.904;2022-12-18T01:17:51;10.10;;;5.53;;
60054;SDS011;45930;53.514;55.904;2022-12-18T01:18:53;9.57;;;5.90;;
60054;SDS011;45930;53.514;55.904;2022-12-18T01:19:54;13.75;;;6.75;;
60054;SDS011;45930;53.514;55.904;2022-12-18T01:20:55;10.65;;;5.97;;
60054;SDS011;45930;53.514;55.904;2022-12-18T01:21:56;12.30;;;6.28;;
60054;SDS011;45930;53.514;55.904;2022-12-18T01:22:57;8.88;;;5.45;;
60054;SDS011;45930;53.514;55.904;2022-12-18T01:23:57;9.65;;;5.47;;
60054;SDS011;45930;53.514;55.904;2022-12-18T01:24:58;11.85;;;5.85;;
60054;SDS011;45930;53.514;55.904;2022-12-18T01:26:03;10.27;;;5.75;;
60054;SDS011;45930;53.514;55.904;2022-12-18T01:27:07;9.32;;;5.40;;
60054;SDS011;45930;53.514;55.904;2022-12-18T01:28:08;10.40;;;6.03;;
60054;SDS011;45930;53.514;55.904;2022-12-18T01:29:09;10.50;;;5.88;;
60054;SDS011;45930;53.514;55.904;2022-12-18T01:30:10;10.05;;;6.43;;
60054;SDS011;45930;53.514;55.904;2022-12-18T01:32:11;10.98;;;6.43;;
60054;SDS011;45930;53.514;55.904;2022-12-18T01:33:12;11.20;;;5.40;;
60054;SDS011;45930;53.514;55.904;2022-12-18T01:34:13;9.80;;;6.22;;
60054;SDS011;45930;53.514;55.904;2022-12-18T01:35:14;12.18;;;6.25;;
60054;SDS011;45930;53.514;55.904;2022-12-18T01:36:16;12.30;;;6.13;;
60054;SDS011;45930;53.514;55.904;2022-12-18T01:37:22;10.15;;;5.97;;
60054;SDS011;45930;53.514;55.904;2022-12-18T01:38:23;9.93;;;6.30;;
60054;SDS011;45930;53.514;55.904;2022-12-18T01:39:23;11.15;;;6.68;;
60054;SDS011;45930;53.514;55.904;2022-12-18T01:40:24;11.90;;;6.50;;
60054;SDS011;45930;53.514;55.904;2022-12-18T01:41:26;10.70;;;6.35;;
60054;SDS011;45930;53.514;55.904;2022-12-18T01:42:50;10.57;;;6.68;;
60054;SDS011;45930;53.514;55.904;2022-12-18T01:43:56;11.93;;;7.57;;
60054;SDS011;45930;53.514;55.904;2022-12-18T01:46:05;9.90;;;6.78;;
60054;SDS011;45930;53.514;55.904;2022-12-18T01:47:06;10.52;;;6.72;;
60054;SDS011;45930;53.514;55.904;2022-12-18T01:48:07;18.55;;;7.40;;
60054;SDS011;45930;53.514;55.904;2022-12-18T01:49:09;12.30;;;7.88;;
60054;SDS011;45930;53.514;55.904;2022-12-18T01:50:14;8.95;;;6.68;;
60054;SDS011;45930;53.514;55.904;2022-12-18T01:51:20;10.88;;;6.30;;
60054;SDS011;45930;53.514;55.904;2022-12-18T01:52:22;11.80;;;6.75;;
60054;SDS011;45930;53.514;55.904;2022-12-18T01:53:26;10.18;;;6.88;;
60054;SDS011;45930;53.514;55.904;2022-12-18T01:54:26;10.60;;;7.25;;
60054;SDS011;45930;53.514;55.904;2022-12-18T01:55:29;11.07;;;6.43;;
60054;SDS011;45930;53.514;55.904;2022-12-18T01:56:32;8.90;;;6.07;;
60054;SDS011;45930;53.514;55.904;2022-12-18T01:57:33;9.15;;;6.18;;
60054;SDS011;45930;53.514;55.904;2022-12-18T01:59:54;10.05;;;6.25;;
60054;SDS011;45930;53.514;55.904;2022-12-18T02:00:59;12.60;;;6.97;;
60054;SDS011;45930;53.514;55.904;2022-12-18T02:02:00;11.80;;;6.63;;
60054;SDS011;45930;53.514;55.904;2022-12-18T02:03:01;11.48;;;6.30;;
60054;SDS011;45930;53.514;55.904;2022-12-18T02:05:33;9.35;;;5.50;;
60054;SDS011;45930;53.514;55.904;2022-12-18T02:06:45;10.48;;;5.70;;
60054;SDS011;45930;53.514;55.904;2022-12-18T02:08:02;10.45;;;6.18;;
60054;SDS011;45930;53.514;55.904;2022-12-18T02:09:10;12.32;;;6.15;;
60054;SDS011;45930;53.514;55.904;2022-12-18T02:10:27;9.02;;;5.63;;
60054;SDS011;45930;53.514;55.904;2022-12-18T02:13:57;8.02;;;5.68;;
60054;SDS011;45930;53.514;55.904;2022-12-18T02:15:18;8.32;;;5.45;;
60054;SDS011;45930;53.514;55.904;2022-12-18T02:17:56;12.57;;;9.15;;
60054;SDS011;45930;53.514;55.904;2022-12-18T02:19:10;10.02;;;6.25;;
60054;SDS011;45930;53.514;55.904;2022-12-18T02:20:35;8.45;;;5.28;;
60054;SDS011;45930;53.514;55.904;2022-12-18T02:24:29;8.00;;;4.97;;
60054;SDS011;45930;53.514;55.904;2022-12-18T02:26:37;7.43;;;4.38;;
60054;SDS011;45930;53.514;55.904;2022-12-18T02:27:45;8.80;;;4.57;;
60054;SDS011;45930;53.514;55.904;2022-12-18T02:29:00;7.22;;;4.95;;
60054;SDS011;45930;53.514;55.904;2022-12-18T02:30:06;7.90;;;5.07;;
60054;SDS011;45930;53.514;55.904;2022-12-18T02:31:09;8.90;;;4.10;;
60054;SDS011;45930;53.514;55.904;2022-12-18T02:32:15;8.07;;;4.03;;
60054;SDS011;45930;53.514;55.904;2022-12-18T02:33:21;8.18;;;4.20;;
60054;SDS011;45930;53.514;55.904;2022-12-18T02:34:29;10.02;;;4.65;;
60054;SDS011;45930;53.514;55.904;2022-12-18T02:35:33;10.05;;;5.15;;
60054;SDS011;45930;53.514;55.904;2022-12-18T02:36:37;7.88;;;4.72;;
60054;SDS011;45930;53.514;55.904;2022-12-18T02:37:41;9.02;;;4.80;;
60054;SDS011;45930;53.514;55.904;2022-12-18T02:38:45;6.47;;;4.68;;
60054;SDS011;45930;53.514;55.904;2022-12-18T02:39:47;9.68;;;4.97;;
60054;SDS011;45930;53.514;55.904;2022-12-18T02:40:49;11.25;;;4.82;;
60054;SDS011;45930;53.514;55.904;2022-12-18T02:41:52;7.10;;;4.75;;
60054;SDS011;45930;53.514;55.904;2022-12-18T02:42:52;8.35;;;4.85;;
60054;SDS011;45930;53.514;55.904;2022-12-18T02:43:58;9.20;;;4.53;;
60054;SDS011;45930;53.514;55.904;2022-12-18T02:45:01;8.93;;;4.55;;
60054;SDS011;45930;53.514;55.904;2022-12-18T02:47:39;6.82;;;4.25;;
60054;SDS011;45930;53.514;55.904;2022-12-18T02:48:42;7.90;;;4.45;;
60054;SDS011;45930;53.514;55.904;2022-12-18T02:53:35;8.68;;;4.55;;
60054;SDS011;45930;53.514;55.904;2022-12-18T02:57:05;10.38;;;4.35;;
60054;SDS011;45930;53.514;55.904;2022-12-18T02:59:31;6.60;;;3.75;;
60054;SDS011;45930;53.514;55.904;2022-12-18T03:04:34;4.95;;;2.83;;
60054;SDS011;45930;53.514;55.904;2022-12-18T03:05:44;7.57;;;3.90;;
60054;SDS011;45930;53.514;55.904;2022-12-18T03:07:02;7.55;;;3.78;;
60054;SDS011;45930;53.514;55.904;2022-12-18T03:08:07;6.13;;;3.83;;
60054;SDS011;45930;53.514;55.904;2022-12-18T03:09:21;9.05;;;3.80;;
60054;SDS011;45930;53.514;55.904;2022-12-18T03:10:31;5.90;;;3.92;;
60054;SDS011;45930;53.514;55.904;2022-12-18T03:11:36;7.68;;;4.43;;
60054;SDS011;45930;53.514;55.904;2022-12-18T03:13:17;4.78;;;3.58;;
60054;SDS011;45930;53.514;55.904;2022-12-18T03:14:29;5.07;;;3.50;;
60054;SDS011;45930;53.514;55.904;2022-12-18T03:15:36;5.60;;;4.28;;
60054;SDS011;45930;53.514;55.904;2022-12-18T03:16:40;7.75;;;3.58;;
60054;SDS011;45930;53.514;55.904;2022-12-18T03:17:44;6.82;;;3.70;;
60054;SDS011;45930;53.514;55.904;2022-12-18T03:18:53;7.28;;;4.55;;
60054;SDS011;45930;53.514;55.904;2022-12-18T03:19:59;9.52;;;4.40;;
60054;SDS011;45930;53.514;55.904;2022-12-18T03:21:05;8.60;;;4.20;;
60054;SDS011;45930;53.514;55.904;2022-12-18T03:22:08;8.77;;;4.20;;
60054;SDS011;45930;53.514;55.904;2022-12-18T03:23:12;8.32;;;3.90;;
60054;SDS011;45930;53.514;55.904;2022-12-18T03:24:17;4.97;;;4.35;;
60054;SDS011;45930;53.514;55.904;2022-12-18T03:25:20;7.68;;;4.20;;
60054;SDS011;45930;53.514;55.904;2022-12-18T03:26:23;6.03;;;3.70;;
60054;SDS011;45930;53.514;55.904;2022-12-18T03:27:27;8.88;;;4.95;;
60054;SDS011;45930;53.514;55.904;2022-12-18T03:28:31;7.38;;;4.55;;
60054;SDS011;45930;53.514;55.904;2022-12-18T03:30:51;8.43;;;4.32;;
60054;SDS011;45930;53.514;55.904;2022-12-18T03:32:18;7.95;;;5.55;;
60054;SDS011;45930;53.514;55.904;2022-12-18T03:33:38;9.00;;;5.07;;
60054;SDS011;45930;53.514;55.904;2022-12-18T03:34:46;8.85;;;4.90;;
60054;SDS011;45930;53.514;55.904;2022-12-18T03:35:50;8.27;;;4.75;;
60054;SDS011;45930;53.514;55.904;2022-12-18T03:36:51;10.77;;;5.00;;
60054;SDS011;45930;53.514;55.904;2022-12-18T03:37:52;10.95;;;5.13;;
60054;SDS011;45930;53.514;55.904;2022-12-18T03:38:52;7.47;;;4.80;;
60054;SDS011;45930;53.514;55.904;2022-12-18T03:39:53;10.35;;;5.55;;
60054;SDS011;45930;53.514;55.904;2022-12-18T03:41:03;8.75;;;5.07;;
60054;SDS011;45930;53.514;55.904;2022-12-18T03:43:20;7.70;;;5.32;;
60054;SDS011;45930;53.514;55.904;2022-12-18T03:44:40;6.47;;;4.90;;
60054;SDS011;45930;53.514;55.904;2022-12-18T03:45:50;13.23;;;5.70;;
60054;SDS011;45930;53.514;55.904;2022-12-18T03:48:11;8.27;;;5.40;;
60054;SDS011;45930;53.514;55.904;2022-12-18T03:52:11;8.30;;;5.10;;
60054;SDS011;45930;53.514;55.904;2022-12-18T03:54:24;9.27;;;5.38;;
60054;SDS011;45930;53.514;55.904;2022-12-18T03:55:29;9.52;;;4.57;;
60054;SDS011;45930;53.514;55.904;2022-12-18T03:56:35;11.27;;;5.38;;
60054;SDS011;45930;53.514;55.904;2022-12-18T03:57:40;10.68;;;5.70;;
60054;SDS011;45930;53.514;55.904;2022-12-18T03:58:43;7.55;;;4.95;;
60054;SDS011;45930;53.514;55.904;2022-12-18T03:59:45;11.35;;;4.70;;
60054;SDS011;45930;53.514;55.904;2022-12-18T04:00:49;8.40;;;4.70;;
60054;SDS011;45930;53.514;55.904;2022-12-18T04:01:53;12.13;;;5.68;;
60054;SDS011;45930;53.514;55.904;2022-12-18T04:02:58;11.82;;;5.78;;
60054;SDS011;45930;53.514;55.904;2022-12-18T04:04:02;7.47;;;4.80;;
60054;SDS011;45930;53.514;55.904;2022-12-18T04:05:04;8.52;;;4.70;;
60054;SDS011;45930;53.514;55.904;2022-12-18T04:06:07;11.43;;;5.10;;
60054;SDS011;45930;53.514;55.904;2022-12-18T04:07:08;8.80;;;5.53;;
60054;SDS011;45930;53.514;55.904;2022-12-18T04:08:10;11.75;;;5.88;;
60054;SDS011;45930;53.514;55.904;2022-12-18T04:09:11;9.52;;;4.50;;
60054;SDS011;45930;53.514;55.904;2022-12-18T04:10:13;10.23;;;4.85;;
60054;SDS011;45930;53.514;55.904;2022-12-18T04:11:15;8.20;;;4.95;;
60054;SDS011;45930;53.514;55.904;2022-12-18T04:12:17;8.90;;;4.85;;
60054;SDS011;45930;53.514;55.904;2022-12-18T04:13:24;8.20;;;4.72;;
60054;SDS011;45930;53.514;55.904;2022-12-18T04:14:29;8.30;;;4.68;;
60054;SDS011;45930;53.514;55.904;2022-12-18T04:15:31;8.82;;;4.63;;
60054;SDS011;45930;53.514;55.904;2022-12-18T04:16:34;9.70;;;4.90;;
60054;SDS011;45930;53.514;55.904;2022-12-18T04:17:35;10.57;;;4.82;;
60054;SDS011;45930;53.514;55.904;2022-12-18T04:18:37;11.50;;;4.93;;
60054;SDS011;45930;53.514;55.904;2022-12-18T04:19:37;9.18;;;4.35;;
60054;SDS011;45930;53.514;55.904;2022-12-18T04:20:38;8.63;;;4.43;;
60054;SDS011;45930;53.514;55.904;2022-12-18T04:21:39;8.18;;;4.30;;
60054;SDS011;45930;53.514;55.904;2022-12-18T04:22:40;8.43;;;4.30;;
60054;SDS011;45930;53.514;55.904;2022-12-18T04:23:40;7.70;;;3.97;;
60054;SDS011;45930;53.514;55.904;2022-12-18T04:24:41;10.60;;;4.20;;
60054;SDS011;45930;53.514;55.904;2022-12-18T04:25:42;8.40;;;3.90;;
60054;SDS011;45930;53.514;55.904;2022-12-18T04:26:43;8.77;;;5.07;;
60054;SDS011;45930;53.514;55.904;2022-12-18T04:27:43;7.53;;;3.70;;
60054;SDS011;45930;53.514;55.904;2022-12-18T04:28:44;8.02;;;4.30;;
60054;SDS011;45930;53.514;55.904;2022-12-18T04:29:45;7.60;;;4.55;;
60054;SDS011;45930;53.514;55.904;2022-12-18T04:30:46;6.20;;;3.60;;
60054;SDS011;45930;53.514;55.904;2022-12-18T04:31:46;9.50;;;4.07;;
60054;SDS011;45930;53.514;55.904;2022-12-18T04:32:47;7.68;;;3.90;;
60054;SDS011;45930;53.514;55.904;2022-12-18T04:33:48;6.35;;;3.53;;
60054;SDS011;45930;53.514;55.904;2022-12-18T04:34:48;6.00;;;3.90;;
60054;SDS011;45930;53.514;55.904;2022-12-18T04:35:50;6.50;;;4.72;;
60054;SDS011;45930;53.514;55.904;2022-12-18T04:36:51;8.60;;;4.47;;
60054;SDS011;45930;53.514;55.904;2022-12-18T04:37:51;10.52;;;4.68;;
60054;SDS011;45930;53.514;55.904;2022-12-18T04:38:52;5.88;;;3.85;;
60054;SDS011;45930;53.514;55.904;2022-12-18T04:39:53;6.57;;;4.15;;
60054;SDS011;45930;53.514;55.904;2022-12-18T04:40:54;9.15;;;4.70;;
60054;SDS011;45930;53.514;55.904;2022-12-18T04:41:54;8.00;;;4.10;;
60054;SDS011;45930;53.514;55.904;2022-12-18T04:42:55;5.10;;;3.60;;
60054;SDS011;45930;53.514;55.904;2022-12-18T04:43:56;7.35;;;3.70;;
60054;SDS011;45930;53.514;55.904;2022-12-18T04:44:56;8.88;;;4.43;;
60054;SDS011;45930;53.514;55.904;2022-12-18T04:46:06;7.28;;;3.75;;
60054;SDS011;45930;53.514;55.904;2022-12-18T04:47:08;7.18;;;4.55;;
60054;SDS011;45930;53.514;55.904;2022-12-18T04:48:09;7.63;;;3.58;;
60054;SDS011;45930;53.514;55.904;2022-12-18T04:49:09;8.13;;;4.03;;
60054;SDS011;45930;53.514;55.904;2022-12-18T04:50:13;11.90;;;4.72;;
60054;SDS011;45930;53.514;55.904;2022-12-18T04:51:14;9.60;;;4.05;;
60054;SDS011;45930;53.514;55.904;2022-12-18T04:52:14;7.97;;;4.25;;
60054;SDS011;45930;53.514;55.904;2022-12-18T04:53:15;7.38;;;3.72;;
60054;SDS011;45930;53.514;55.904;2022-12-18T04:54:19;8.32;;;4.43;;
60054;SDS011;45930;53.514;55.904;2022-12-18T04:55:20;7.15;;;4.25;;
60054;SDS011;45930;53.514;55.904;2022-12-18T04:56:21;8.15;;;3.72;;
60054;SDS011;45930;53.514;55.904;2022-12-18T04:57:22;7.47;;;3.95;;
60054;SDS011;45930;53.514;55.904;2022-12-18T04:58:23;9.93;;;4.22;;
60054;SDS011;45930;53.514;55.904;2022-12-18T04:59:24;6.25;;;3.80;;
60054;SDS011;45930;53.514;55.904;2022-12-18T05:00:24;8.55;;;3.97;;
60054;SDS011;45930;53.514;55.904;2022-12-18T05:01:25;7.53;;;4.28;;
60054;SDS011;45930;53.514;55.904;2022-12-18T05:02:26;7.63;;;3.78;;
60054;SDS011;45930;53.514;55.904;2022-12-18T05:03:27;5.80;;;3.88;;
60054;SDS011;45930;53.514;55.904;2022-12-18T05:04:27;7.82;;;3.63;;
60054;SDS011;45930;53.514;55.904;2022-12-18T05:05:28;11.35;;;3.70;;
60054;SDS011;45930;53.514;55.904;2022-12-18T05:06:29;6.88;;;4.25;;
60054;SDS011;45930;53.514;55.904;2022-12-18T05:07:29;8.07;;;4.22;;
60054;SDS011;45930;53.514;55.904;2022-12-18T05:08:30;5.85;;;3.38;;
60054;SDS011;45930;53.514;55.904;2022-12-18T05:09:32;7.18;;;4.72;;
60054;SDS011;45930;53.514;55.904;2022-12-18T05:10:33;14.80;;;4.60;;
60054;SDS011;45930;53.514;55.904;2022-12-18T05:11:34;5.88;;;3.80;;
60054;SDS011;45930;53.514;55.904;2022-12-18T05:12:34;8.32;;;4.60;;
60054;SDS011;45930;53.514;55.904;2022-12-18T05:13:55;7.47;;;4.05;;
60054;SDS011;45930;53.514;55.904;2022-12-18T05:14:56;9.70;;;4.93;;
60054;SDS011;45930;53.514;55.904;2022-12-18T05:15:56;7.72;;;4.50;;
60054;SDS011;45930;53.514;55.904;2022-12-18T05:16:58;9.55;;;3.45;;
60054;SDS011;45930;53.514;55.904;2022-12-18T05:17:59;7.95;;;4.10;;
60054;SDS011;45930;53.514;55.904;2022-12-18T05:19:00;7.50;;;4.13;;
60054;SDS011;45930;53.514;55.904;2022-12-18T05:20:01;8.70;;;4.38;;
60054;SDS011;45930;53.514;55.904;2022-12-18T05:21:02;8.48;;;4.05;;
60054;SDS011;45930;53.514;55.904;2022-12-18T05:22:03;8.10;;;3.60;;
60054;SDS011;45930;53.514;55.904;2022-12-18T05:23:04;5.80;;;3.47;;
60054;SDS011;45930;53.514;55.904;2022-12-18T05:24:05;11.63;;;5.35;;
60054;SDS011;45930;53.514;55.904;2022-12-18T05:25:06;8.23;;;4.70;;
60054;SDS011;45930;53.514;55.904;2022-12-18T05:26:07;6.65;;;3.65;;
60054;SDS011;45930;53.514;55.904;2022-12-18T05:27:08;6.15;;;3.75;;
60054;SDS011;45930;53.514;55.904;2022-12-18T05:28:08;6.63;;;4.03;;
60054;SDS011;45930;53.514;55.904;2022-12-18T05:29:09;7.85;;;4.05;;
60054;SDS011;45930;53.514;55.904;2022-12-18T05:30:12;7.63;;;4.47;;
60054;SDS011;45930;53.514;55.904;2022-12-18T05:31:14;9.30;;;4.50;;
60054;SDS011;45930;53.514;55.904;2022-12-18T05:32:14;6.80;;;3.88;;
60054;SDS011;45930;53.514;55.904;2022-12-18T05:33:15;7.78;;;4.43;;
60054;SDS011;45930;53.514;55.904;2022-12-18T05:34:17;8.05;;;4.53;;
60054;SDS011;45930;53.514;55.904;2022-12-18T05:35:18;10.80;;;4.43;;
60054;SDS011;45930;53.514;55.904;2022-12-18T05:36:18;7.05;;;3.83;;
60054;SDS011;45930;53.514;55.904;2022-12-18T05:37:19;9.40;;;4.22;;
60054;SDS011;45930;53.514;55.904;2022-12-18T05:38:21;7.65;;;4.05;;
60054;SDS011;45930;53.514;55.904;2022-12-18T05:39:23;7.57;;;3.80;;
60054;SDS011;45930;53.514;55.904;2022-12-18T05:40:24;8.45;;;4.45;;
60054;SDS011;45930;53.514;55.904;2022-12-18T05:41:24;8.88;;;3.83;;
60054;SDS011;45930;53.514;55.904;2022-12-18T05:42:25;9.75;;;4.45;;
60054;SDS011;45930;53.514;55.904;2022-12-18T05:43:26;6.45;;;4.50;;
60054;SDS011;45930;53.514;55.904;2022-12-18T05:44:31;8.98;;;4.00;;
60054;SDS011;45930;53.514;55.904;2022-12-18T05:45:32;12.25;;;5.80;;
60054;SDS011;45930;53.514;55.904;2022-12-18T05:46:33;9.50;;;4.25;;
60054;SDS011;45930;53.514;55.904;2022-12-18T05:47:33;5.97;;;3.97;;
60054;SDS011;45930;53.514;55.904;2022-12-18T05:48:34;7.60;;;3.90;;
60054;SDS011;45930;53.514;55.904;2022-12-18T05:49:35;10.85;;;5.50;;
60054;SDS011;45930;53.514;55.904;2022-12-18T05:50:36;7.97;;;3.95;;
60054;SDS011;45930;53.514;55.904;2022-12-18T05:51:38;10.63;;;4.45;;
60054;SDS011;45930;53.514;55.904;2022-12-18T05:52:38;7.82;;;3.92;;
60054;SDS011;45930;53.514;55.904;2022-12-18T05:53:39;10.45;;;4.72;;
60054;SDS011;45930;53.514;55.904;2022-12-18T05:54:40;7.90;;;4.72;;
60054;SDS011;45930;53.514;55.904;2022-12-18T05:55:41;8.98;;;4.25;;
60054;SDS011;45930;53.514;55.904;2022-12-18T05:56:43;7.57;;;3.50;;
60054;SDS011;45930;53.514;55.904;2022-12-18T05:57:44;6.40;;;3.28;;
60054;SDS011;45930;53.514;55.904;2022-12-18T05:58:44;7.88;;;3.80;;
60054;SDS011;45930;53.514;55.904;2022-12-18T05:59:45;7.68;;;4.25;;
60054;SDS011;45930;53.514;55.904;2022-12-18T06:00:46;9.65;;;4.07;;
60054;SDS011;45930;53.514;55.904;2022-12-18T06:01:47;8.13;;;4.35;;
60054;SDS011;45930;53.514;55.904;2022-12-18T06:02:50;11.05;;;4.32;;
60054;SDS011;45930;53.514;55.904;2022-12-18T06:03:51;7.85;;;4.32;;
60054;SDS011;45930;53.514;55.904;2022-12-18T06:04:52;8.95;;;4.50;;
60054;SDS011;45930;53.514;55.904;2022-12-18T06:05:53;9.95;;;4.82;;
60054;SDS011;45930;53.514;55.904;2022-12-18T06:06:54;7.90;;;4.22;;
60054;SDS011;45930;53.514;55.904;2022-12-18T06:07:55;8.10;;;4.25;;
60054;SDS011;45930;53.514;55.904;2022-12-18T06:08:55;9.45;;;4.18;;
60054;SDS011;45930;53.514;55.904;2022-12-18T06:09:57;8.05;;;4.43;;
60054;SDS011;45930;53.514;55.904;2022-12-18T06:10:58;6.68;;;4.00;;
60054;SDS011;45930;53.514;55.904;2022-12-18T06:11:59;6.07;;;3.67;;
60054;SDS011;45930;53.514;55.904;2022-12-18T06:13:00;9.05;;;4.28;;
60054;SDS011;45930;53.514;55.904;2022-12-18T06:14:01;7.00;;;4.13;;
60054;SDS011;45930;53.514;55.904;2022-12-18T06:15:03;8.38;;;3.95;;
60054;SDS011;45930;53.514;55.904;2022-12-18T06:16:05;7.82;;;4.05;;
60054;SDS011;45930;53.514;55.904;2022-12-18T06:17:06;11.50;;;5.03;;
60054;SDS011;45930;53.514;55.904;2022-12-18T06:18:09;8.10;;;4.63;;
60054;SDS011;45930;53.514;55.904;2022-12-18T06:19:13;7.93;;;4.28;;
60054;SDS011;45930;53.514;55.904;2022-12-18T06:20:15;12.77;;;4.53;;
60054;SDS011;45930;53.514;55.904;2022-12-18T06:21:16;7.80;;;3.78;;
60054;SDS011;45930;53.514;55.904;2022-12-18T06:22:16;7.93;;;4.30;;
60054;SDS011;45930;53.514;55.904;2022-12-18T06:23:17;10.98;;;5.72;;
60054;SDS011;45930;53.514;55.904;2022-12-18T06:24:18;7.78;;;4.05;;
60054;SDS011;45930;53.514;55.904;2022-12-18T06:25:19;8.73;;;5.28;;
60054;SDS011;45930;53.514;55.904;2022-12-18T06:26:20;9.20;;;4.38;;
60054;SDS011;45930;53.514;55.904;2022-12-18T06:27:21;7.70;;;4.60;;
60054;SDS011;45930;53.514;55.904;2022-12-18T06:28:21;8.43;;;4.55;;
60054;SDS011;45930;53.514;55.904;2022-12-18T06:29:22;9.73;;;4.32;;
60054;SDS011;45930;53.514;55.904;2022-12-18T06:30:23;10.18;;;4.57;;
60054;SDS011;45930;53.514;55.904;2022-12-18T06:31:24;11.30;;;5.07;;
60054;SDS011;45930;53.514;55.904;2022-12-18T06:32:25;8.05;;;4.82;;
60054;SDS011;45930;53.514;55.904;2022-12-18T06:33:27;9.13;;;4.43;;
60054;SDS011;45930;53.514;55.904;2022-12-18T06:34:28;9.48;;;4.78;;
60054;SDS011;45930;53.514;55.904;2022-12-18T06:35:29;7.43;;;4.97;;
60054;SDS011;45930;53.514;55.904;2022-12-18T06:36:30;8.02;;;4.68;;
60054;SDS011;45930;53.514;55.904;2022-12-18T06:37:31;7.68;;;5.10;;
60054;SDS011;45930;53.514;55.904;2022-12-18T06:38:32;9.23;;;4.60;;
60054;SDS011;45930;53.514;55.904;2022-12-18T06:39:33;11.57;;;5.05;;
60054;SDS011;45930;53.514;55.904;2022-12-18T06:40:35;10.05;;;4.22;;
60054;SDS011;45930;53.514;55.904;2022-12-18T06:41:38;12.40;;;5.32;;
60054;SDS011;45930;53.514;55.904;2022-12-18T06:42:38;6.38;;;4.97;;
60054;SDS011;45930;53.514;55.904;2022-12-18T06:43:39;12.48;;;5.45;;
60054;SDS011;45930;53.514;55.904;2022-12-18T06:44:40;9.93;;;4.90;;
60054;SDS011;45930;53.514;55.904;2022-12-18T06:45:41;9.13;;;4.65;;